Main page
METAR-TAF:

METAR-TAF

Airports :

Wichita Dwight D. Eisenhower National Airport

Wichita, Kansas, United States

latitude: 37-38-50N, longitude: 097-25-46W, elevation: 1332 ft

Current weather observation

The report was made 47 minutes ago, at 07:53 UTC
Wind 10 mph from the North
Temperature 73°F
Humidity 73%
Pressure 29.90 in. Hg
Visibility: 10 miles
Clear sky

METAR: KICT 140753Z 01009KT 10SM CLR 23/18 A2990 RMK AO2 SLP108 T02280178 $

Time: 03:40 (08:40 UTC)

Forecast

The report was made 3 hours and 13 minutes ago, at 05:27 UTC
Forecast valid from 14 at 06 UTC to 15 at 06 UTC
Wind 15 mph from the Southwest
Visibility: 6 miles
Broken clouds at a height of 20000 ft
From 14 at 1500 UTC
Wind 8 mph from the North/Northeast
Visibility: 6 miles
Scattered clouds at a height of 25000 ft
From 14 at 2100 UTC
Wind 16 mph from the East with gusts up to 23 mph
Visibility: 6 miles
Scattered clouds at a height of 24000 ft

TAF: KICT 140527Z 1406/1506 22013KT P6SM BKN200 FM141500 02007KT P6SM SCT250 FM142100 08014G20KT P6SM SCT240

Weather observations and forecasts of more than 4000 airports (METAR and TAF reports).

The available stations are represented by yellow and red dots on the map.

Hover mouse over dot to see the name of the station.

Then click to see weather observations and forecasts.

To change the map : click on the green buttons with a black cross to zoom in, on the green button with a dash to zoom out, or on the green arrows for adjacent maps.


METAR-TAF: